Time;durP1;ratioP1;P1;durP2;ratioP2;P2;SDS_P1;SDS_P2;PMS_P1;PMS_P2;Temp;Humidity;BMP_temperature;BMP_pressure;BME280_temperature;BME280_humidity;BME280_pressure;Samples;Min_cycle;Max_cycle;Signal;HPM_P1;HPM_P2
2024/01/15 00:02:08;;;;;;;20.00;8.30;;;;;;;-2.01;72.57;98782.13;4956014;28;20502;-87
2024/01/15 00:04:38;;;;;;;15.70;7.10;;;;;;;-2.02;72.83;98781.28;4955983;28;20224;-87
2024/01/15 00:07:04;;;;;;;9.57;7.07;;;;;;;-1.99;72.38;98779.53;4952833;28;20220;-86
2024/01/15 00:09:29;;;;;;;28.20;14.40;;;;;;;-1.97;72.65;98772.59;4956073;28;20489;-85
2024/01/15 00:11:57;;;;;;;22.50;11.77;;;;;;;-1.97;72.65;98770.88;4957014;28;20220;-84
2024/01/15 00:14:23;;;;;;;18.13;11.68;;;;;;;-1.96;72.66;98769.16;4973113;28;20275;-86
2024/01/15 00:16:51;;;;;;;19.10;9.70;;;;;;;-1.98;72.60;98764.03;4955641;28;20251;-85
2024/01/15 00:19:17;;;;;;;21.48;10.55;;;;;;;-2.01;72.58;98770.09;4956856;28;20509;-87
2024/01/15 00:21:43;;;;;;;18.70;7.55;;;;;;;-2.01;72.74;98756.38;4956551;28;20226;-85
2024/01/15 00:24:08;;;;;;;19.53;7.27;;;;;;;-2.02;72.47;98754.72;4957249;28;20232;-85
2024/01/15 00:26:34;;;;;;;15.77;8.23;;;;;;;-2.03;72.44;98756.41;4957457;28;20768;-87
2024/01/15 00:28:59;;;;;;;27.40;10.13;;;;;;;-2.03;72.18;98750.44;4956978;28;20286;-85
2024/01/15 00:31:25;;;;;;;15.00;9.50;;;;;;;-2.05;72.10;98754.81;4956085;28;20230;-86
2024/01/15 00:33:50;;;;;;;24.40;9.03;;;;;;;-2.08;72.42;98744.56;4958603;28;20723;-84
2024/01/15 00:36:16;;;;;;;22.13;11.23;;;;;;;-2.12;72.17;98735.25;4957640;28;20764;-85
2024/01/15 00:38:43;;;;;;;29.30;18.07;;;;;;;-2.14;72.30;98729.28;4956076;28;20957;-85
2024/01/15 00:41:08;;;;;;;29.60;14.63;;;;;;;-2.26;72.05;98741.59;4959086;28;20471;-85
2024/01/15 00:43:34;;;;;;;30.77;15.63;;;;;;;-2.44;72.16;98739.50;4959761;28;20212;-86
2024/01/15 00:46:02;;;;;;;29.40;12.97;;;;;;;-2.58;72.51;98741.56;4956235;28;20768;-85
2024/01/15 00:48:28;;;;;;;25.40;14.57;;;;;;;-2.69;72.84;98734.94;4959135;28;20649;-85
2024/01/15 00:50:54;;;;;;;24.63;13.20;;;;;;;-2.75;72.77;98735.09;4960094;28;20790;-87
2024/01/15 00:53:21;;;;;;;25.25;12.25;;;;;;;-2.83;72.93;98733.59;4963200;28;20240;-86
2024/01/15 00:55:47;;;;;;;22.17;13.13;;;;;;;-2.87;72.88;98737.09;4966221;28;20436;-85
2024/01/15 00:58:13;;;;;;;25.88;13.52;;;;;;;-2.86;72.96;98725.94;4962277;28;20637;-84
2024/01/15 01:00:38;;;;;;;32.70;12.57;;;;;;;-2.85;72.91;98722.50;4960704;28;20222;-85
2024/01/15 01:03:07;;;;;;;25.60;13.77;;;;;;;-2.83;72.92;98723.31;4960485;28;20215;-84
2024/01/15 01:05:34;;;;;;;26.27;13.10;;;;;;;-2.79;72.91;98724.94;4960076;28;20208;-86
2024/01/15 01:08:03;;;;;;;30.20;13.93;;;;;;;-2.75;72.59;98723.97;4956715;28;20216;-84
2024/01/15 01:10:28;;;;;;;27.10;12.80;;;;;;;-2.74;72.43;98733.38;4958899;28;20220;-86
2024/01/15 01:12:54;;;;;;;26.70;13.27;;;;;;;-2.76;72.50;98727.41;4959353;28;20226;-85
2024/01/15 01:15:20;;;;;;;22.37;11.87;;;;;;;-2.79;72.39;98730.06;4957832;28;20410;-86
2024/01/15 01:17:46;;;;;;;21.08;13.63;;;;;;;-2.82;72.50;98737.84;4955504;28;20212;-85
2024/01/15 01:20:12;;;;;;;25.90;12.25;;;;;;;-2.87;72.53;98731.97;4960406;28;20215;-85
2024/01/15 01:22:37;;;;;;;23.10;11.97;;;;;;;-2.89;72.62;98734.56;4960096;28;20592;-85
2024/01/15 01:25:04;;;;;;;21.43;10.13;;;;;;;-2.88;72.90;98736.28;4958915;28;20239;-86
2024/01/15 01:27:29;;;;;;;21.52;12.88;;;;;;;-2.84;72.65;98737.88;4959603;28;20479;-85
2024/01/15 01:29:55;;;;;;;26.07;12.43;;;;;;;-2.78;72.83;98732.59;4959789;28;20216;-86
2024/01/15 01:32:20;;;;;;;25.83;11.20;;;;;;;-2.74;72.29;98733.38;4960369;28;20224;-85
2024/01/15 01:34:46;;;;;;;21.53;10.40;;;;;;;-2.72;72.44;98726.47;4960005;28;20274;-85
2024/01/15 01:37:14;;;;;;;24.30;11.60;;;;;;;-2.68;72.34;98722.94;4962191;28;20254;-86
2024/01/15 01:39:40;;;;;;;30.58;15.70;;;;;;;-2.64;72.30;98724.56;4960299;28;20220;-84
2024/01/15 01:42:06;;;;;;;31.40;12.02;;;;;;;-2.60;72.51;98722.75;4962149;28;20236;-84
2024/01/15 01:44:32;;;;;;;26.90;12.77;;;;;;;-2.56;72.33;98725.22;4960444;28;20655;-85
2024/01/15 01:46:59;;;;;;;32.37;13.43;;;;;;;-2.52;72.26;98731.13;4963959;28;20769;-84
2024/01/15 01:49:26;;;;;;;20.42;11.95;;;;;;;-2.48;71.99;98725.03;4962470;28;20219;-85
2024/01/15 01:51:53;;;;;;;21.20;13.52;;;;;;;-2.46;72.27;98724.13;4963928;28;20243;-85
2024/01/15 01:54:20;;;;;;;22.55;13.65;;;;;;;-2.43;72.18;98735.19;4961181;28;20286;-85
2024/01/15 01:56:48;;;;;;;25.98;13.13;;;;;;;-2.45;72.44;98730.09;4960260;28;20223;-85
2024/01/15 01:59:14;;;;;;;29.00;13.68;;;;;;;-2.40;72.47;98727.38;4961529;28;20779;-85
2024/01/15 02:01:40;;;;;;;31.90;15.10;;;;;;;-2.35;72.38;98735.84;4962042;28;20314;-85
2024/01/15 02:04:06;;;;;;;28.50;13.03;;;;;;;-2.33;72.40;98744.38;4960693;28;20490;-84
2024/01/15 02:06:31;;;;;;;29.53;12.30;;;;;;;-2.31;72.45;98740.03;4957387;28;21010;-85
2024/01/15 02:08:57;;;;;;;36.55;19.20;;;;;;;-2.25;72.72;98737.28;4958044;28;20473;-84
2024/01/15 02:11:23;;;;;;;26.52;14.50;;;;;;;-2.19;72.60;98749.97;4959050;28;20896;-86
2024/01/15 02:13:49;;;;;;;30.92;13.32;;;;;;;-2.16;72.63;98749.06;4959176;28;20231;-84
2024/01/15 02:16:14;;;;;;;30.10;14.50;;;;;;;-2.16;72.80;98747.38;4959856;28;21059;-84
2024/01/15 02:18:44;;;;;;;27.30;13.97;;;;;;;-2.11;72.70;98739.50;4961621;28;20222;-84
2024/01/15 02:21:10;;;;;;;30.15;14.50;;;;;;;-2.08;72.66;98735.13;4959376;28;20235;-84
2024/01/15 02:23:36;;;;;;;28.25;15.13;;;;;;;-2.03;72.75;98738.41;4959998;28;20359;-84
2024/01/15 02:26:02;;;;;;;34.17;14.18;;;;;;;-1.96;72.71;98739.09;4957912;28;20244;-84
2024/01/15 02:28:28;;;;;;;33.63;14.30;;;;;;;-1.90;72.32;98745.81;4957652;28;20216;-86
2024/01/15 02:30:53;;;;;;;32.27;12.97;;;;;;;-1.86;72.40;98737.13;4960107;28;20220;-85
2024/01/15 02:33:19;;;;;;;30.97;16.07;;;;;;;-1.82;72.45;98739.56;4958720;28;20600;-86
2024/01/15 02:35:46;;;;;;;24.07;14.63;;;;;;;-1.82;72.37;98741.31;4959994;28;20335;-85
2024/01/15 02:38:11;;;;;;;33.25;17.92;;;;;;;-1.82;72.52;98728.44;4959108;28;20916;-84
2024/01/15 02:40:38;;;;;;;34.37;14.90;;;;;;;-1.80;72.46;98734.38;4960369;28;21142;-85
2024/01/15 02:43:04;;;;;;;30.60;15.18;;;;;;;-1.79;72.54;98728.34;4961150;28;20228;-85
2024/01/15 02:45:29;;;;;;;25.83;14.30;;;;;;;-1.76;72.53;98730.00;4962710;28;20278;-85
2024/01/15 02:47:55;;;;;;;25.90;13.47;;;;;;;-1.74;72.66;98733.38;4964387;28;20228;-87
2024/01/15 02:50:21;;;;;;;31.60;13.80;;;;;;;-1.73;72.37;98740.19;4963334;28;20251;-86
2024/01/15 02:52:46;;;;;;;26.27;13.83;;;;;;;-1.71;72.81;98738.44;4961923;28;20228;-89
2024/01/15 02:55:21;;;;;;;29.30;13.63;;;;;;;-1.69;72.59;98734.94;4967088;28;20577;-88
2024/01/15 02:57:46;;;;;;;24.52;12.13;;;;;;;-1.67;72.20;98745.19;4972617;28;20221;-87
2024/01/15 03:00:12;;;;;;;22.63;12.20;;;;;;;-1.68;72.40;98739.19;4962775;28;20319;-86
2024/01/15 03:02:39;;;;;;;25.23;14.07;;;;;;;-1.68;72.37;98733.19;4961533;28;20216;-85
2024/01/15 03:05:09;;;;;;;23.05;13.48;;;;;;;-1.69;72.40;98739.25;4960756;28;20212;-86
2024/01/15 03:07:34;;;;;;;34.70;14.83;;;;;;;-1.71;72.83;98741.84;4957270;28;21034;-85
2024/01/15 03:10:00;;;;;;;27.33;14.03;;;;;;;-1.70;72.69;98734.97;4957788;28;20515;-85
2024/01/15 03:12:25;;;;;;;26.63;15.40;;;;;;;-1.67;73.04;98732.31;4959314;28;20434;-84
2024/01/15 03:14:51;;;;;;;22.53;13.33;;;;;;;-1.66;72.52;98737.41;4959750;28;20506;-86
2024/01/15 03:17:16;;;;;;;26.53;16.63;;;;;;;-1.62;72.65;98736.47;4960030;28;20255;-85
2024/01/15 03:19:42;;;;;;;21.57;12.67;;;;;;;-1.61;72.73;98720.09;4957120;28;20241;-86
2024/01/15 03:22:08;;;;;;;30.20;14.53;;;;;;;-1.59;72.29;98722.66;4956284;28;20220;-87
2024/01/15 03:24:34;;;;;;;34.10;15.70;;;;;;;-1.59;72.86;98723.50;4958628;28;20251;-86
2024/01/15 03:27:00;;;;;;;34.00;13.35;;;;;;;-1.56;72.41;98730.28;4956884;28;20236;-84
2024/01/15 03:29:33;;;;;;;27.83;15.10;;;;;;;-1.56;72.82;98713.09;4958571;28;20347;-87
2024/01/15 03:31:59;;;;;;;40.50;15.23;;;;;;;-1.58;73.08;98720.00;4960043;28;20227;-85
2024/01/15 03:34:25;;;;;;;30.07;15.90;;;;;;;-1.62;72.88;98727.84;4958925;28;20264;-86
2024/01/15 03:36:50;;;;;;;29.57;17.23;;;;;;;-1.71;73.20;98722.97;4958277;28;20238;-88
2024/01/15 03:39:16;;;;;;;48.75;27.17;;;;;;;-1.71;73.36;98726.41;4957256;28;20547;-85
2024/01/15 03:41:42;;;;;;;36.40;19.80;;;;;;;-1.71;73.78;98722.97;4955474;28;20219;-87
2024/01/15 03:44:07;;;;;;;36.97;20.30;;;;;;;-1.70;73.99;98727.22;4959223;28;20227;-85
2024/01/15 03:46:36;;;;;;;31.67;16.73;;;;;;;-1.66;73.94;98726.28;4959005;28;20912;-86
2024/01/15 03:49:03;;;;;;;30.77;15.10;;;;;;;-1.62;73.60;98721.00;4958848;28;20231;-88
2024/01/15 03:51:29;;;;;;;40.10;19.75;;;;;;;-1.60;73.67;98731.25;4958764;28;20227;-83
2024/01/15 03:53:54;;;;;;;34.43;16.37;;;;;;;-1.59;73.59;98727.81;4959248;28;20232;-85
2024/01/15 03:56:19;;;;;;;35.60;16.27;;;;;;;-1.57;73.39;98724.28;4960789;28;20275;-86
2024/01/15 03:58:45;;;;;;;31.10;16.60;;;;;;;-1.54;73.48;98717.34;4960181;28;20756;-84
2024/01/15 04:01:10;;;;;;;33.10;13.17;;;;;;;-1.50;73.34;98716.38;4960765;28;20247;-87
2024/01/15 04:03:36;;;;;;;34.80;14.87;;;;;;;-1.48;73.29;98706.88;4961646;28;20216;-85
2024/01/15 04:06:03;;;;;;;28.57;14.10;;;;;;;-1.47;73.19;98711.13;4959223;28;20239;-88
2024/01/15 04:08:28;;;;;;;39.88;20.15;;;;;;;-1.42;73.47;98714.44;4959422;28;20480;-85
2024/01/15 04:10:54;;;;;;;42.63;18.03;;;;;;;-1.39;72.99;98709.19;4957355;28;20995;-87
2024/01/15 04:13:20;;;;;;;34.25;17.73;;;;;;;-1.38;73.37;98706.56;4958117;28;20641;-85
2024/01/15 04:15:45;;;;;;;32.10;16.73;;;;;;;-1.35;73.43;98716.78;4958540;28;20227;-85
2024/01/15 04:18:11;;;;;;;30.93;14.57;;;;;;;-1.31;73.40;98711.53;4972539;28;20218;-85
2024/01/15 04:20:36;;;;;;;25.90;13.33;;;;;;;-1.27;73.34;98706.25;4956527;28;20766;-85
2024/01/15 04:23:02;;;;;;;24.80;13.10;;;;;;;-1.25;73.13;98707.03;4959108;28;20211;-85
2024/01/15 04:25:29;;;;;;;31.70;18.45;;;;;;;-1.23;73.05;98722.44;4958608;28;20228;-83
2024/01/15 04:28:13;;;;;;;37.33;15.63;;;;;;;-1.22;73.15;98718.97;4965907;28;20646;-84
2024/01/15 04:30:52;;;;;;;33.63;16.90;;;;;;;-1.21;72.87;98718.09;4973786;28;20272;-84
2024/01/15 04:33:43;;;;;;;26.45;13.95;;;;;;;-1.21;73.00;98716.38;4962557;28;20715;-83
2024/01/15 04:36:08;;;;;;;33.13;16.60;;;;;;;-1.23;73.09;98720.72;4960643;28;20692;-85
2024/01/15 04:38:36;;;;;;;46.37;22.57;;;;;;;-1.20;73.33;98719.78;4961459;28;20477;-86
2024/01/15 04:41:01;;;;;;;36.72;20.25;;;;;;;-1.17;73.23;98717.94;4963067;28;20311;-83
2024/01/15 04:43:27;;;;;;;26.97;14.77;;;;;;;-1.14;73.35;98717.00;4965804;28;20247;-83
2024/01/15 04:45:53;;;;;;;34.20;16.63;;;;;;;-1.12;73.32;98703.19;4963620;28;20224;-84
2024/01/15 04:48:18;;;;;;;30.20;15.50;;;;;;;-1.09;73.42;98701.41;4966094;28;20288;-87
2024/01/15 04:50:44;;;;;;;25.37;14.17;;;;;;;-1.06;73.13;98701.31;4980624;28;20216;-86
2024/01/15 04:53:09;;;;;;;27.90;13.37;;;;;;;-1.06;73.25;98702.16;4962135;28;20498;-87
2024/01/15 04:55:35;;;;;;;23.23;12.83;;;;;;;-1.05;73.12;98692.69;4962197;28;20230;-85
2024/01/15 04:58:00;;;;;;;27.53;16.47;;;;;;;-1.03;73.17;98694.31;4962616;28;20736;-85
2024/01/15 05:00:25;;;;;;;32.50;15.73;;;;;;;-1.02;73.39;98690.03;4957652;28;20729;-85
2024/01/15 05:02:51;;;;;;;38.07;16.23;;;;;;;-1.01;73.32;98689.13;4960296;28;20224;-85
2024/01/15 05:05:16;;;;;;;25.93;14.90;;;;;;;-1.02;73.38;98685.72;4960023;28;20650;-86
2024/01/15 05:07:41;;;;;;;31.93;16.87;;;;;;;-1.00;73.54;98695.97;4963405;28;21032;-85
2024/01/15 05:10:07;;;;;;;40.93;17.87;;;;;;;-0.99;73.52;98695.94;4965978;28;20220;-85
2024/01/15 05:12:33;;;;;;;33.17;15.67;;;;;;;-0.96;73.32;98698.41;4965360;28;20282;-86
2024/01/15 05:14:59;;;;;;;27.27;15.90;;;;;;;-0.94;73.54;98696.63;4962385;28;20499;-86
2024/01/15 05:17:24;;;;;;;35.37;15.93;;;;;;;-0.91;73.29;98690.53;4963068;28;20497;-84
2024/01/15 05:19:50;;;;;;;31.20;14.70;;;;;;;-0.90;73.19;98695.63;4965650;28;20228;-87
2024/01/15 05:22:16;;;;;;;25.17;12.17;;;;;;;-0.88;73.40;98695.59;4966330;28;20523;-85
2024/01/15 05:24:41;;;;;;;33.97;16.85;;;;;;;-0.85;73.18;98684.34;4982400;28;20287;-86
2024/01/15 05:27:07;;;;;;;37.27;16.67;;;;;;;-0.81;73.29;98691.06;4976527;28;20283;-83
2024/01/15 05:29:32;;;;;;;20.00;12.53;;;;;;;-0.80;73.28;98688.44;4977747;28;20279;-86
2024/01/15 05:31:57;;;;;;;34.47;15.20;;;;;;;-0.76;73.50;98678.88;4976107;28;20219;-84
2024/01/15 05:34:23;;;;;;;27.13;13.93;;;;;;;-0.74;73.15;98679.66;4977858;28;20321;-83
2024/01/15 05:36:48;;;;;;;52.00;25.05;;;;;;;-0.71;73.23;98682.97;4976452;28;20468;-85
2024/01/15 05:39:14;;;;;;;54.83;27.67;;;;;;;-0.67;73.79;98683.75;4979171;28;20889;-83
2024/01/15 05:41:39;;;;;;;48.13;24.17;;;;;;;-0.65;73.91;98673.34;4981045;28;20467;-84
2024/01/15 05:44:04;;;;;;;34.53;19.17;;;;;;;-0.63;73.88;98674.16;4981385;28;20461;-83
2024/01/15 05:46:30;;;;;;;28.70;16.33;;;;;;;-0.62;73.65;98675.84;4978499;28;20266;-85
2024/01/15 05:48:56;;;;;;;32.20;17.53;;;;;;;-0.58;73.86;98682.59;4979869;28;20208;-88
2024/01/15 05:51:21;;;;;;;30.80;16.80;;;;;;;-0.58;73.46;98670.53;4975332;28;20302;-86
2024/01/15 05:53:46;;;;;;;34.60;18.50;;;;;;;-0.55;73.53;98667.00;4976150;28;20232;-84
2024/01/15 05:56:24;;;;;;;35.07;16.70;;;;;;;-0.52;73.29;98664.31;4979541;28;20208;-84
2024/01/15 05:58:54;;;;;;;37.22;15.60;;;;;;;-0.50;73.43;98662.53;4976226;28;20224;-83
2024/01/15 06:01:20;;;;;;;27.33;14.43;;;;;;;-0.47;73.35;98665.00;4986765;28;20211;-86
2024/01/15 06:03:45;;;;;;;25.90;14.43;;;;;;;-0.44;73.45;98659.75;4980093;28;20389;-83
2024/01/15 06:06:11;;;;;;;28.57;15.33;;;;;;;-0.42;73.04;98657.97;4982258;28;20220;-83
2024/01/15 06:08:37;;;;;;;40.40;20.60;;;;;;;-0.40;73.00;98645.84;4977453;28;20515;-86
2024/01/15 06:11:03;;;;;;;40.22;18.50;;;;;;;-0.36;73.21;98652.56;4974247;28;20435;-85
2024/01/15 06:13:28;;;;;;;31.47;18.20;;;;;;;-0.34;73.31;98655.97;4977512;28;20222;-86
2024/01/15 06:15:54;;;;;;;21.93;12.93;;;;;;;-0.34;73.37;98655.97;4977625;28;20481;-82
2024/01/15 06:18:19;;;;;;;33.73;14.97;;;;;;;-0.34;73.33;98647.38;4975922;28;20219;-84
2024/01/15 06:20:44;;;;;;;34.17;18.40;;;;;;;-0.34;73.02;98650.78;4961191;28;20218;-86
2024/01/15 06:23:10;;;;;;;23.60;13.70;;;;;;;-0.34;73.26;98643.06;4958528;28;20666;-85
2024/01/15 06:25:35;;;;;;;30.90;14.00;;;;;;;-0.32;73.29;98643.84;4961130;28;20235;-86
2024/01/15 06:28:01;;;;;;;31.40;14.57;;;;;;;-0.31;73.43;98642.09;4960395;28;20764;-86
2024/01/15 06:30:26;;;;;;;31.40;12.70;;;;;;;-0.29;73.30;98637.75;4959723;28;20226;-85
2024/01/15 06:32:51;;;;;;;31.07;14.30;;;;;;;-0.25;73.33;98636.72;4960774;28;20225;-85
2024/01/15 06:35:17;;;;;;;25.40;12.60;;;;;;;-0.22;73.21;98639.19;4960733;28;20235;-84
2024/01/15 06:37:42;;;;;;;33.63;16.55;;;;;;;-0.19;73.09;98635.66;4963902;28;20453;-85
2024/01/15 06:40:08;;;;;;;33.90;16.00;;;;;;;-0.15;73.09;98632.94;4959444;28;20230;-84
2024/01/15 06:42:34;;;;;;;25.77;13.33;;;;;;;-0.10;73.12;98622.44;4959680;28;20215;-85
2024/01/15 06:44:59;;;;;;;31.37;14.67;;;;;;;-0.08;72.99;98621.50;4960398;28;20483;-87
2024/01/15 06:47:25;;;;;;;29.57;15.90;;;;;;;-0.05;73.16;98611.06;4960045;28;20227;-85
2024/01/15 06:49:52;;;;;;;27.57;13.70;;;;;;;-0.01;73.13;98606.59;4959660;28;20496;-87
2024/01/15 06:52:17;;;;;;;31.92;13.65;;;;;;;-0.01;73.00;98607.44;4958267;28;20289;-85
2024/01/15 06:54:43;;;;;;;27.07;14.77;;;;;;;0.01;73.04;98593.66;4959248;28;20226;-86
2024/01/15 06:57:08;;;;;;;28.77;13.47;;;;;;;0.03;72.91;98610.78;4961688;28;20239;-85
2024/01/15 06:59:35;;;;;;;32.87;14.37;;;;;;;0.05;72.94;98601.22;4962289;28;20225;-86
2024/01/15 07:02:01;;;;;;;27.25;13.23;;;;;;;0.08;73.00;98598.53;4963346;28;20286;-85
2024/01/15 07:04:27;;;;;;;29.40;14.55;;;;;;;0.11;72.92;98600.13;4964723;28;20220;-86
2024/01/15 07:06:52;;;;;;;28.63;12.30;;;;;;;0.13;72.70;98598.34;4973462;28;20210;-87
2024/01/15 07:09:18;;;;;;;39.23;19.63;;;;;;;0.15;72.92;98606.88;4977397;28;20466;-87
2024/01/15 07:11:46;;;;;;;27.70;14.73;;;;;;;0.15;73.30;98602.56;4972751;28;20227;-85
2024/01/15 07:14:12;;;;;;;35.25;14.80;;;;;;;0.15;73.12;98599.97;4971934;28;20220;-85
2024/01/15 07:16:38;;;;;;;36.00;16.20;;;;;;;0.17;73.45;98597.34;4971385;28;20208;-86
2024/01/15 07:19:03;;;;;;;36.60;17.53;;;;;;;0.17;73.15;98605.94;4972531;28;20212;-87
2024/01/15 07:21:29;;;;;;;51.77;21.40;;;;;;;0.19;73.32;98590.41;4972507;28;20216;-88
2024/01/15 07:23:55;;;;;;;27.73;15.00;;;;;;;0.20;72.98;98585.16;4969370;28;20322;-87
2024/01/15 07:26:21;;;;;;;26.03;13.30;;;;;;;0.21;72.70;98576.50;4970448;28;20823;-87
2024/01/15 07:28:47;;;;;;;27.27;12.98;;;;;;;0.24;73.06;98569.53;4970550;28;20220;-86
2024/01/15 07:31:12;;;;;;;25.60;10.80;;;;;;;0.25;72.83;98571.25;4970749;28;20208;-85
2024/01/15 07:33:43;;;;;;;29.87;12.33;;;;;;;0.26;72.83;98580.66;4969890;28;20465;-86
2024/01/15 07:36:09;;;;;;;28.10;10.88;;;;;;;0.25;72.88;98587.56;4964900;28;20220;-85
2024/01/15 07:38:34;;;;;;;34.00;19.05;;;;;;;0.28;72.88;98594.38;4961434;28;20509;-84
2024/01/15 07:41:00;;;;;;;24.20;13.00;;;;;;;0.30;72.81;98606.31;4964002;28;20276;-84
2024/01/15 07:43:27;;;;;;;26.93;13.60;;;;;;;0.31;72.95;98608.00;4972844;28;20223;-85
2024/01/15 07:45:53;;;;;;;26.85;11.85;;;;;;;0.34;72.70;98604.44;4972949;28;20480;-86
2024/01/15 07:48:18;;;;;;;33.37;14.57;;;;;;;0.39;72.82;98594.78;4973289;28;20589;-83
2024/01/15 07:50:43;;;;;;;23.60;10.60;;;;;;;0.42;72.55;98579.16;4973731;28;20626;-86
2024/01/15 07:53:09;;;;;;;27.93;14.27;;;;;;;0.47;72.54;98582.41;4972257;28;20220;-85
2024/01/15 07:55:34;;;;;;;24.30;9.77;;;;;;;0.50;72.31;98586.63;4973033;28;20221;-84
2024/01/15 07:58:01;;;;;;;27.03;13.07;;;;;;;0.52;72.27;98588.25;4972359;28;20251;-85
2024/01/15 08:00:26;;;;;;;24.15;14.68;;;;;;;0.57;71.95;98583.75;4972761;28;20211;-86
2024/01/15 08:02:53;;;;;;;30.60;15.97;;;;;;;0.61;71.95;98587.03;4972163;28;20242;-84
2024/01/15 08:05:18;;;;;;;19.75;10.77;;;;;;;0.63;71.72;98604.16;4971767;28;20711;-86
2024/01/15 08:07:44;;;;;;;20.05;10.77;;;;;;;0.68;71.48;98603.16;4961737;28;20792;-86
2024/01/15 08:10:09;;;;;;;16.90;10.07;;;;;;;0.69;71.37;98612.56;4960121;28;20350;-86
2024/01/15 08:12:34;;;;;;;17.10;11.03;;;;;;;0.71;71.26;98611.63;4960709;28;20224;-85
2024/01/15 08:15:00;;;;;;;20.07;8.77;;;;;;;0.77;71.31;98607.94;4961317;28;20807;-87
2024/01/15 08:17:28;;;;;;;22.90;11.70;;;;;;;0.82;71.45;98593.09;4962322;28;20570;-86
2024/01/15 08:19:54;;;;;;;10.38;6.85;;;;;;;0.84;71.21;98592.13;4961233;28;20466;-85
2024/01/15 08:22:20;;;;;;;19.00;8.43;;;;;;;0.86;70.93;98580.00;4963164;28;20339;-85
2024/01/15 08:24:45;;;;;;;11.97;8.03;;;;;;;0.90;70.78;98575.53;4961107;28;20207;-85
2024/01/15 08:27:11;;;;;;;18.27;7.43;;;;;;;0.92;70.97;98573.72;4961372;28;20597;-86
2024/01/15 08:29:36;;;;;;;21.03;8.70;;;;;;;0.95;70.66;98568.44;4963199;28;20278;-87
2024/01/15 08:32:02;;;;;;;15.80;10.43;;;;;;;1.00;70.82;98579.44;4963624;28;20237;-86
2024/01/15 08:34:27;;;;;;;9.50;4.63;;;;;;;1.04;70.33;98575.78;4964102;28;20227;-84
2024/01/15 08:36:53;;;;;;;12.23;5.20;;;;;;;1.06;70.55;98592.09;4964555;28;20219;-87
2024/01/15 08:39:25;;;;;;;21.90;11.80;;;;;;;1.10;70.85;98591.03;4969233;28;20458;-84
2024/01/15 08:41:51;;;;;;;10.65;6.22;;;;;;;1.13;70.42;98584.06;4962892;28;20232;-84
2024/01/15 08:44:16;;;;;;;14.10;6.87;;;;;;;1.16;70.58;98591.69;4962595;28;20232;-85
2024/01/15 08:46:42;;;;;;;4.40;3.40;;;;;;;1.14;70.50;98572.84;4961350;28;20270;-87
2024/01/15 08:49:07;;;;;;;10.03;6.10;;;;;;;1.18;70.56;98569.22;4961907;28;20230;-86
2024/01/15 08:51:33;;;;;;;11.50;5.50;;;;;;;1.18;70.24;98570.03;4962757;28;20224;-86
2024/01/15 08:53:58;;;;;;;10.10;4.10;;;;;;;1.21;70.09;98558.72;4964334;28;20240;-87
2024/01/15 08:56:24;;;;;;;8.80;5.40;;;;;;;1.24;70.26;98549.13;4966503;28;20224;-88
2024/01/15 08:58:50;;;;;;;7.60;4.47;;;;;;;1.28;70.18;98542.03;4962899;28;20314;-86
2024/01/15 09:01:15;;;;;;;13.23;5.63;;;;;;;1.32;70.08;98541.00;4964826;28;20227;-88
2024/01/15 09:03:43;;;;;;;8.30;4.83;;;;;;;1.36;69.75;98539.97;4965045;28;20731;-89
2024/01/15 09:06:10;;;;;;;8.02;5.70;;;;;;;1.39;69.27;98539.84;4967923;28;20270;-84
2024/01/15 09:08:36;;;;;;;10.00;5.70;;;;;;;1.45;69.78;98536.13;4965914;28;21179;-86
2024/01/15 09:11:02;;;;;;;11.95;5.78;;;;;;;1.46;69.12;98520.56;4961693;28;20228;-85
2024/01/15 09:13:28;;;;;;;9.60;5.32;;;;;;;1.50;69.02;98523.84;4965227;28;20224;-85
2024/01/15 09:15:54;;;;;;;13.00;6.17;;;;;;;1.53;68.97;98509.00;4967761;28;20612;-86
2024/01/15 09:18:19;;;;;;;7.13;3.17;;;;;;;1.61;67.71;98519.03;4970840;28;20227;-87
2024/01/15 09:20:44;;;;;;;10.93;5.80;;;;;;;1.60;67.78;98532.88;4969720;28;20390;-85
2024/01/15 09:23:10;;;;;;;13.33;6.87;;;;;;;1.65;68.12;98535.28;4966608;28;20254;-85
2024/01/15 09:25:35;;;;;;;11.90;6.37;;;;;;;1.69;67.60;98531.63;4964127;28;20728;-85
2024/01/15 09:28:02;;;;;;;11.17;4.80;;;;;;;1.75;67.31;98544.28;4968766;28;20256;-87
2024/01/15 09:30:27;;;;;;;13.10;7.22;;;;;;;1.76;67.15;98548.56;4967059;28;20212;-86
2024/01/15 09:32:53;;;;;;;14.77;6.87;;;;;;;1.81;66.99;98548.34;4970347;28;20624;-87
2024/01/15 09:35:18;;;;;;;10.70;6.43;;;;;;;1.87;66.77;98556.69;4976729;28;20236;-88
2024/01/15 09:37:44;;;;;;;15.10;7.73;;;;;;;1.94;67.05;98546.88;4969023;28;21172;-87
2024/01/15 09:40:14;;;;;;;11.90;7.07;;;;;;;1.99;66.52;98553.53;4973211;28;20426;-87
2024/01/15 09:42:41;;;;;;;20.52;8.13;;;;;;;2.06;66.50;98542.91;4976000;28;20286;-88
2024/01/15 09:45:07;;;;;;;15.23;7.95;;;;;;;2.13;66.14;98544.28;4970480;28;20493;-85
2024/01/15 09:47:33;;;;;;;11.40;5.95;;;;;;;2.17;65.89;98540.66;4967963;28;20226;-84
2024/01/15 09:50:03;;;;;;;15.00;7.17;;;;;;;2.24;65.92;98542.03;4970803;28;20215;-86
2024/01/15 09:52:33;;;;;;;11.57;6.47;;;;;;;2.27;65.41;98534.16;4966113;28;20213;-85
2024/01/15 09:55:01;;;;;;;13.00;9.30;;;;;;;2.33;65.47;98545.97;4966191;28;20291;-87
2024/01/15 09:57:27;;;;;;;16.65;8.15;;;;;;;2.32;65.18;98542.53;4965819;28;20223;-86
2024/01/15 09:59:54;;;;;;;15.43;8.63;;;;;;;2.35;65.22;98544.13;4964909;28;20216;-88
2024/01/15 10:02:23;;;;;;;10.25;6.30;;;;;;;2.35;65.08;98539.81;4964905;28;20224;-88
2024/01/15 10:05:02;;;;;;;13.57;7.82;;;;;;;2.34;64.77;98543.28;4963847;28;20385;-88
2024/01/15 10:07:49;;;;;;;13.63;7.57;;;;;;;2.35;64.89;98537.22;4964156;28;20476;-87
2024/01/15 10:10:18;;;;;;;18.10;9.90;;;;;;;2.34;65.03;98545.03;4967106;28;20223;-86
2024/01/15 10:12:47;;;;;;;17.45;8.13;;;;;;;2.33;64.95;98546.81;4965649;28;20681;-88
2024/01/15 10:15:13;;;;;;;20.33;9.70;;;;;;;2.36;65.09;98543.22;4970465;28;20243;-89
2024/01/15 10:17:56;;;;;;;18.85;10.70;;;;;;;2.36;65.06;98543.22;4981938;28;20455;-88
2024/01/15 10:20:31;;;;;;;11.95;6.97;;;;;;;2.39;65.25;98530.13;4973718;28;20581;-86
2024/01/15 10:23:03;;;;;;;15.85;8.88;;;;;;;2.37;64.88;98542.31;4965559;28;20662;-86
2024/01/15 10:25:41;;;;;;;18.40;9.65;;;;;;;2.42;64.77;98535.16;4960900;28;20236;-88
2024/01/15 10:28:09;;;;;;;16.02;9.07;;;;;;;2.47;64.58;98533.19;4962789;28;20759;-85
2024/01/15 10:30:38;;;;;;;16.70;9.77;;;;;;;2.48;64.41;98540.03;4963552;28;20216;-87
2024/01/15 10:33:09;;;;;;;9.52;7.38;;;;;;;2.52;64.67;98538.16;4964986;28;20223;-89
2024/01/15 10:35:44;;;;;;;11.15;7.20;;;;;;;2.52;64.66;98540.75;4964845;28;20223;-85
2024/01/15 10:38:17;;;;;;;20.58;11.60;;;;;;;2.53;64.77;98526.88;4964127;28;20476;-87
2024/01/15 10:40:54;;;;;;;12.88;8.20;;;;;;;2.54;64.76;98534.59;4962133;28;20247;-87
2024/01/15 10:43:29;;;;;;;16.75;8.85;;;;;;;2.54;64.58;98532.00;4965027;28;20220;-85
2024/01/15 10:46:05;;;;;;;16.33;8.90;;;;;;;2.52;64.74;98527.78;4964780;28;20312;-89
2024/01/15 10:48:34;;;;;;;14.88;7.32;;;;;;;2.52;64.80;98539.00;4962576;28;20264;-85
2024/01/15 10:51:00;;;;;;;16.48;8.65;;;;;;;2.50;64.58;98533.03;4965822;28;20243;-84
2024/01/15 10:53:26;;;;;;;14.43;8.60;;;;;;;2.48;64.64;98524.50;4963350;28;20216;-85
2024/01/15 10:55:52;;;;;;;15.18;8.35;;;;;;;2.51;65.03;98533.88;4962394;28;20251;-86
2024/01/15 10:58:20;;;;;;;18.48;10.40;;;;;;;2.50;64.72;98529.59;4961294;28;20498;-85
2024/01/15 11:00:45;;;;;;;26.02;12.70;;;;;;;2.51;64.69;98539.06;4961453;28;20262;-85
2024/01/15 11:03:11;;;;;;;18.40;9.83;;;;;;;2.53;64.49;98545.84;4962941;28;20673;-85
2024/01/15 11:05:38;;;;;;;18.23;10.13;;;;;;;2.57;64.57;98547.38;4962214;28;20220;-87
2024/01/15 11:08:16;;;;;;;21.73;11.52;;;;;;;2.61;64.43;98545.47;4960931;28;20509;-88
2024/01/15 11:10:52;;;;;;;18.10;9.43;;;;;;;2.63;64.64;98543.66;4962074;28;20489;-90
2024/01/15 11:13:44;;;;;;;16.20;10.07;;;;;;;2.67;64.41;98550.38;4961443;28;20279;-86
2024/01/15 11:16:20;;;;;;;19.58;8.98;;;;;;;2.69;64.03;98561.50;4965039;28;20231;-87
2024/01/15 11:18:58;;;;;;;18.25;8.70;;;;;;;2.66;64.06;98554.72;4966708;28;20200;-88
2024/01/15 11:21:26;;;;;;;14.25;9.15;;;;;;;2.69;63.90;98545.13;4963577;28;20227;-86